Galveston, TX (77554)

7:47 PM CST on February 08, 2016 (GMT -0600)
Pirate's Cove | | Change Station
CLOSE
Current Station
Personal Weather Station
Location: Galveston, TX
Elevation: 5 ft
Nearby Weather Stations

Elev 5 ft 29.22 °N, 94.95 °W | Updated 11 minutes ago

Clear
Clear
55.9 °F
Feels Like 55.9 °F
N
10.0
Wind Variable Wind from NW
Gusts 12.0 mph

Today
High -- | Low -- °F
--% Chance of Precip.
Yesterday
High -- | Low -- °F
Precip. -- in
Pressure 30.25 in
Visibility 10.0 miles
Clouds Clear
Dew Point 35 °F
Humidity 45%
Rainfall 0.00 in
Snow Depth Not available.
7:04 AM 6:03 PM
New Moon, 0% visible
METAR KGLS 090052Z AUTO 31011KT 10SM CLR 13/M06 A3025 RMK AO2 PK WND 32027/0001 SLP241 T01281056
Pressure 30.25 in
Visibility 10.0 miles
Clouds Clear
Dew Point 35 °F
Humidity 45%
Rainfall 0.00 in
Snow Depth Not available.
7:04 AM 6:03 PM
New Moon, 0% visible
METAR KGLS 090052Z AUTO 31011KT 10SM CLR 13/M06 A3025 RMK AO2 PK WND 32027/0001 SLP241 T01281056

10-Day Weather Forecast

Almanac

Astronomy

Feb. 08, 2016 Rise Set
Actual Time
Civil Twilight
Nautical Twilight
Astronomical Twilight
Moon
Length of Visible Light
Length of Day
Tomorrow will be .
, % of the Moon is Illuminated

Today's Extremes

State Highs State Lows

Community

WunderPhotos

Upload Photos

1,891,527 photos uploaded!

WunderBlog® & News

Nearby

Air Quality

  Air Quality AQ Index Pollutant
Not available.

Snow Depth

Station Depth Elevation

Earthquake Activity

City Distance Mag. Time & Date
Minimum magnitude displayed is 2.5.

Coastal Water Temperatures

Place Temperature

Stations

Nearby Weather Stations

Station Location Temp. Windchill Dew Point Humidity Wind Precip. Elev Updated Type
                   

Watches & Warnings

There are currently no watches in effect.